Time;durP1;ratioP1;P1;durP2;ratioP2;P2;SDS_P1;SDS_P2;PMS_P1;PMS_P2;Temp;Humidity;BMP_temperature;BMP_pressure;BME280_temperature;BME280_humidity;BME280_pressure;Samples;Min_cycle;Max_cycle;Signal;HPM_P1;HPM_P2
2021/12/26 00:00:35;;;;;;;268.37;83.90;;;;;;;-15.71;100.00;99610.50;5054574;28;20370;-70
2021/12/26 00:03:23;;;;;;;290.97;84.27;;;;;;;-15.71;100.00;99614.66;5054169;28;20053;-70
2021/12/26 00:06:15;;;;;;;253.50;76.77;;;;;;;-15.65;100.00;99613.44;5054778;28;20048;-70
2021/12/26 00:09:00;;;;;;;242.60;74.80;;;;;;;-15.59;100.00;99615.53;5054795;28;20041;-70
2021/12/26 00:11:45;;;;;;;211.13;67.77;;;;;;;-15.64;100.00;99615.19;5054874;28;20044;-70
2021/12/26 00:14:30;;;;;;;203.37;60.87;;;;;;;-15.58;100.00;99610.63;5054557;28;20045;-71
2021/12/26 00:17:14;;;;;;;186.80;55.93;;;;;;;-15.57;100.00;99602.31;5053779;28;20350;-70
2021/12/26 00:20:00;;;;;;;205.53;60.27;;;;;;;-15.58;100.00;99603.09;5054097;28;20045;-70
2021/12/26 00:22:44;;;;;;;176.77;55.57;;;;;;;-15.56;100.00;99601.56;5053891;28;20045;-70
2021/12/26 00:25:29;;;;;;;185.73;56.83;;;;;;;-15.55;100.00;99599.94;5054224;28;20435;-71
2021/12/26 00:28:14;;;;;;;188.93;58.30;;;;;;;-15.59;100.00;99592.94;5053593;28;20053;-70
2021/12/26 00:31:00;;;;;;;185.07;56.23;;;;;;;-15.68;100.00;99602.34;5054344;28;20045;-70
2021/12/26 00:33:45;;;;;;;200.73;66.47;;;;;;;-15.60;100.00;99592.03;5053542;28;20098;-70
2021/12/26 00:36:30;;;;;;;209.77;69.43;;;;;;;-15.59;100.00;99606.38;5053455;28;20398;-71
2021/12/26 00:39:16;;;;;;;226.83;67.23;;;;;;;-15.65;100.00;99590.84;5054132;28;20461;-70
2021/12/26 00:42:05;;;;;;;220.33;62.60;;;;;;;-15.58;100.00;99597.19;5054031;28;20087;-70
2021/12/26 00:44:49;;;;;;;249.20;74.70;;;;;;;-15.56;100.00;99591.53;5054027;28;20049;-70
2021/12/26 00:47:34;;;;;;;234.80;76.47;;;;;;;-15.52;100.00;99596.78;5053325;28;20359;-70
2021/12/26 00:50:25;;;;;;;201.37;70.30;;;;;;;-15.50;100.00;99601.13;5053266;28;20045;-70
2021/12/26 00:53:10;;;;;;;247.17;73.50;;;;;;;-15.47;100.00;99590.44;5053921;28;20150;-70
2021/12/26 00:55:54;;;;;;;227.67;74.10;;;;;;;-15.48;100.00;99592.09;5053328;28;20045;-70
2021/12/26 00:58:38;;;;;;;258.23;79.00;;;;;;;-15.35;100.00;99596.38;5053218;28;20350;-71
2021/12/26 01:01:22;;;;;;;229.00;68.33;;;;;;;-15.33;100.00;99599.88;5053159;28;20045;-71
2021/12/26 01:04:07;;;;;;;217.53;67.67;;;;;;;-15.33;100.00;99598.25;5039093;28;20391;-71
2021/12/26 01:06:52;;;;;;;203.17;65.97;;;;;;;-15.33;100.00;99603.25;5053307;28;20057;-70
2021/12/26 01:09:37;;;;;;;211.93;61.47;;;;;;;-15.24;100.00;99604.69;5053046;28;20037;-70
2021/12/26 01:12:23;;;;;;;167.23;55.27;;;;;;;-15.28;100.00;99605.22;5052920;28;20045;-70
2021/12/26 01:15:10;;;;;;;161.87;54.13;;;;;;;-15.35;100.00;99603.91;5052948;28;20068;-71
2021/12/26 01:18:05;;;;;;;172.67;57.57;;;;;;;-15.28;100.00;99605.22;5053511;28;20499;-70
2021/12/26 01:20:56;;;;;;;163.93;51.20;;;;;;;-15.29;100.00;99599.34;5053031;28;20045;-70
2021/12/26 01:23:42;;;;;;;168.07;53.53;;;;;;;-15.35;100.00;99593.84;5052866;28;20041;-71
2021/12/26 01:26:28;;;;;;;189.90;57.93;;;;;;;-15.36;100.00;99594.63;5038702;28;20336;-70
2021/12/26 01:29:13;;;;;;;176.27;57.00;;;;;;;-15.36;100.00;99592.13;5052511;28;20090;-70
2021/12/26 01:32:00;;;;;;;180.57;57.03;;;;;;;-15.38;100.00;99588.59;5052259;28;20108;-71
2021/12/26 01:35:07;;;;;;;174.47;52.60;;;;;;;-15.37;100.00;99585.31;5053321;28;20041;-70
2021/12/26 01:38:14;;;;;;;;;;;;;;;-15.21;100.00;99582.28;5053672;28;20036;-70
2021/12/26 01:41:10;;;;;;;153.30;52.33;;;;;;;-15.22;100.00;99578.03;5039723;28;19921;-71
2021/12/26 01:44:04;;;;;;;144.00;47.03;;;;;;;-15.26;100.00;99576.94;5052497;28;20118;-71
2021/12/26 01:47:09;;;;;;;130.20;44.30;;;;;;;-15.25;100.00;99575.31;5052473;28;20363;-71
2021/12/26 01:49:54;;;;;;;130.03;44.83;;;;;;;-15.29;100.00;99576.72;5038549;28;20089;-70
2021/12/26 01:52:40;;;;;;;127.00;44.70;;;;;;;-15.31;100.00;99581.63;5052543;28;20045;-70
2021/12/26 01:55:37;;;;;;;124.37;41.73;;;;;;;-15.26;100.00;99581.09;5052558;28;20045;-71
2021/12/26 01:58:26;;;;;;;127.33;42.43;;;;;;;-15.17;100.00;99582.66;5038309;28;20098;-71
2021/12/26 02:01:13;;;;;;;120.63;35.00;;;;;;;-15.22;100.00;99583.06;5052081;28;20064;-71
2021/12/26 02:03:58;;;;;;;117.10;36.60;;;;;;;-15.23;100.00;99578.81;5038238;28;20396;-70
2021/12/26 02:06:43;;;;;;;120.20;36.77;;;;;;;-15.27;100.00;99586.88;5024376;28;20045;-71
2021/12/26 02:09:28;;;;;;;130.40;35.83;;;;;;;-15.22;100.00;99583.94;5052351;28;20057;-70
2021/12/26 02:12:15;;;;;;;102.93;33.67;;;;;;;-15.16;100.00;99586.91;5052177;28;20041;-70
2021/12/26 02:15:00;;;;;;;105.00;30.50;;;;;;;-15.16;100.00;99589.41;5052106;28;20045;-71
2021/12/26 02:18:00;;;;;;;126.80;32.20;;;;;;;-15.15;100.00;99585.25;5052222;28;20469;-70
2021/12/26 02:30:06;;;;;;;;;;;;;;;-15.30;100.00;99590.06;5052263;28;20120;-70
2021/12/26 02:32:52;;;;;;;77.80;24.57;;;;;;;-15.32;100.00;99591.56;5051821;28;19920;-70
2021/12/26 02:35:38;;;;;;;75.67;24.70;;;;;;;-15.36;100.00;99590.47;5052095;28;20053;-70
2021/12/26 02:38:23;;;;;;;87.00;30.70;;;;;;;-15.44;100.00;99588.16;5052487;28;20048;-70
2021/12/26 02:41:07;;;;;;;99.53;31.27;;;;;;;-15.36;100.00;99592.13;5052849;28;20069;-70
2021/12/26 02:43:53;;;;;;;89.10;31.47;;;;;;;-15.43;100.00;99589.94;5055348;28;20045;-70
2021/12/26 02:46:37;;;;;;;101.87;33.60;;;;;;;-15.47;100.00;99588.81;5055213;28;20054;-71
2021/12/26 02:49:24;;;;;;;106.03;33.80;;;;;;;-15.61;100.00;99595.31;5055226;28;20041;-70
2021/12/26 02:52:08;;;;;;;96.13;32.53;;;;;;;-15.71;100.00;99592.06;5041229;28;20045;-70
2021/12/26 02:54:52;;;;;;;121.67;37.03;;;;;;;-15.81;100.00;99590.50;5055765;28;20111;-70
2021/12/26 02:57:37;;;;;;;110.97;36.63;;;;;;;-15.88;100.00;99588.31;5055327;28;20045;-71
2021/12/26 03:00:27;;;;;;;94.97;34.47;;;;;;;-16.02;100.00;99559.63;5055431;28;20385;-70
2021/12/26 03:03:12;;;;;;;122.70;39.47;;;;;;;-15.96;100.00;99587.69;5055685;28;20045;-70
2021/12/26 03:06:05;;;;;;;135.50;42.37;;;;;;;-15.97;100.00;99575.91;5055629;28;20354;-70
2021/12/26 03:08:51;;;;;;;115.72;37.53;;;;;;;-16.12;100.00;99592.31;5040985;28;20068;-70
2021/12/26 03:11:38;;;;;;;93.13;33.90;;;;;;;-16.20;100.00;99598.41;5054858;28;20048;-70
2021/12/26 03:14:22;;;;;;;109.03;36.13;;;;;;;-16.22;100.00;99595.75;5054708;28;20093;-70
2021/12/26 03:17:07;;;;;;;104.23;33.50;;;;;;;-16.32;100.00;99601.72;5055484;28;20053;-70
2021/12/26 03:19:52;;;;;;;102.50;30.97;;;;;;;-16.32;100.00;99598.34;5055451;28;20037;-70
2021/12/26 03:22:37;;;;;;;148.00;30.80;;;;;;;-16.36;100.00;99596.34;5054687;28;20041;-71
2021/12/26 03:25:23;;;;;;;90.93;28.27;;;;;;;-16.31;100.00;99598.47;5054568;28;20037;-70
2021/12/26 03:28:08;;;;;;;103.40;31.73;;;;;;;-16.23;100.00;99603.19;5054885;28;20041;-70
2021/12/26 03:30:53;;;;;;;91.87;29.90;;;;;;;-16.14;100.00;99598.88;5054560;28;20044;-70
2021/12/26 03:33:39;;;;;;;89.13;28.47;;;;;;;-16.05;100.00;99589.50;5054582;28;20423;-70
2021/12/26 03:36:23;;;;;;;122.30;31.57;;;;;;;-15.91;100.00;99593.97;5055101;28;20078;-70
2021/12/26 03:39:08;;;;;;;87.07;29.20;;;;;;;-15.71;100.00;99587.03;5054526;28;20052;-71
2021/12/26 03:41:53;;;;;;;90.47;27.33;;;;;;;-15.72;100.00;99598.72;5055027;28;20049;-70
2021/12/26 03:44:38;;;;;;;96.13;29.10;;;;;;;-15.49;100.00;99597.88;5054525;28;20435;-71
2021/12/26 03:47:23;;;;;;;106.20;28.60;;;;;;;-15.46;100.00;99595.59;5054230;28;20052;-71
2021/12/26 03:50:08;;;;;;;105.70;26.73;;;;;;;-15.39;100.00;99594.41;5055027;28;20051;-71
2021/12/26 03:52:54;;;;;;;96.90;28.87;;;;;;;-15.40;100.00;99596.06;5053338;28;20047;-70
2021/12/26 03:55:40;;;;;;;92.67;27.67;;;;;;;-15.33;100.00;99605.78;5054150;28;20044;-70
2021/12/26 03:58:24;;;;;;;82.97;26.33;;;;;;;-15.37;100.00;99600.41;5054350;28;20048;-70
2021/12/26 04:01:10;;;;;;;95.57;28.00;;;;;;;-15.29;100.00;99600.97;5054045;28;20056;-70
2021/12/26 04:03:54;;;;;;;94.47;31.27;;;;;;;-15.32;100.00;99604.13;5053982;28;20048;-70
2021/12/26 04:06:41;;;;;;;90.17;32.37;;;;;;;-15.42;100.00;99609.25;5054195;28;20113;-71
2021/12/26 04:09:26;;;;;;;92.97;33.63;;;;;;;-15.42;100.00;99612.63;5053886;28;20446;-70
2021/12/26 04:12:11;;;;;;;126.13;37.50;;;;;;;-15.46;100.00;99615.69;5053861;28;20041;-71
2021/12/26 04:14:58;;;;;;;128.53;36.00;;;;;;;-15.58;100.00;99613.13;5039894;28;20137;-70
2021/12/26 04:17:42;;;;;;;114.47;36.67;;;;;;;-15.77;100.00;99619.22;5053899;28;20040;-70
2021/12/26 04:20:28;;;;;;;129.43;37.70;;;;;;;-15.87;100.00;99613.50;5053759;28;20033;-70
2021/12/26 04:23:14;;;;;;;107.93;35.80;;;;;;;-15.90;100.00;99625.81;5039576;28;20063;-70
2021/12/26 04:25:59;;;;;;;101.43;34.03;;;;;;;-15.94;100.00;99631.38;5053714;28;20045;-70
2021/12/26 04:28:44;;;;;;;96.93;33.27;;;;;;;-16.05;100.00;99619.63;5053810;28;20169;-70
2021/12/26 04:31:29;;;;;;;95.90;30.17;;;;;;;-16.03;100.00;99639.06;5053659;28;20051;-70
2021/12/26 04:34:13;;;;;;;73.40;25.50;;;;;;;-15.95;100.00;99629.63;5039570;28;20400;-70
2021/12/26 04:36:57;;;;;;;66.20;23.90;;;;;;;-16.08;100.00;99629.47;5054499;28;20064;-70
2021/12/26 04:39:42;;;;;;;65.03;23.37;;;;;;;-16.13;100.00;99631.59;5054218;28;20052;-70
2021/12/26 04:42:27;;;;;;;61.23;23.03;;;;;;;-16.16;100.00;99623.84;5039242;28;20048;-70
2021/12/26 04:45:40;;;;;;;;;;;;;;;-16.25;100.00;99633.16;5008865;28;20057;-70
2021/12/26 04:48:44;;;;;;;70.97;23.63;;;;;;;-16.34;100.00;99630.84;5053457;28;20080;-70
2021/12/26 04:51:29;;;;;;;69.23;22.70;;;;;;;-16.32;100.00;99634.31;5053279;28;20331;-70
2021/12/26 04:54:18;;;;;;;63.53;22.93;;;;;;;-16.32;100.00;99633.44;5053148;28;20124;-70
2021/12/26 04:57:04;;;;;;;54.60;20.20;;;;;;;-16.37;100.00;99635.63;5053186;28;20045;-70
2021/12/26 04:59:48;;;;;;;61.77;22.80;;;;;;;-16.41;100.00;99638.63;5053016;28;20063;-71
2021/12/26 05:02:36;;;;;;;53.53;20.07;;;;;;;-16.42;100.00;99643.53;5053156;28;20037;-70
2021/12/26 05:05:20;;;;;;;59.93;23.50;;;;;;;-16.42;100.00;99638.50;5053477;28;20123;-70
2021/12/26 05:08:06;;;;;;;68.67;23.00;;;;;;;-16.47;100.00;99624.72;5053128;28;20049;-70
2021/12/26 05:10:50;;;;;;;60.30;23.13;;;;;;;-16.44;100.00;99635.00;5053175;28;20440;-70
2021/12/26 05:13:35;;;;;;;73.30;26.30;;;;;;;-16.59;100.00;99629.69;5052984;28;20038;-70
2021/12/26 05:16:19;;;;;;;64.00;24.33;;;;;;;-16.63;100.00;99643.63;5053067;28;20232;-70
2021/12/26 05:19:03;;;;;;;62.00;22.07;;;;;;;-16.62;100.00;99647.88;5053048;28;20045;-70
2021/12/26 05:21:48;;;;;;;60.77;22.87;;;;;;;-16.64;100.00;99643.47;5052832;28;20120;-70
2021/12/26 05:24:32;;;;;;;58.77;20.73;;;;;;;-16.73;100.00;99648.66;5052548;28;20060;-70
2021/12/26 05:27:18;;;;;;;52.33;18.93;;;;;;;-16.76;100.00;99653.47;5052717;28;20040;-70
2021/12/26 05:30:05;;;;;;;60.67;21.27;;;;;;;-16.67;100.00;99648.25;5052805;28;20528;-70
2021/12/26 05:32:50;;;;;;;64.37;23.70;;;;;;;-16.72;100.00;99650.41;5052731;28;20061;-70
2021/12/26 05:35:34;;;;;;;61.27;21.20;;;;;;;-16.79;100.00;99649.06;5038609;28;20056;-70
2021/12/26 05:38:19;;;;;;;52.70;21.07;;;;;;;-16.83;100.00;99656.22;5052558;28;20065;-70
2021/12/26 05:41:06;;;;;;;46.80;19.37;;;;;;;-16.87;100.00;99657.59;5052695;28;20060;-70
2021/12/26 05:43:54;;;;;;;55.00;19.80;;;;;;;-16.85;100.00;99655.22;5052576;28;20061;-70
2021/12/26 05:46:39;;;;;;;56.93;22.43;;;;;;;-16.77;100.00;99661.72;5052711;28;20041;-70
2021/12/26 05:49:27;;;;;;;60.43;22.93;;;;;;;-16.77;100.00;99656.69;5052556;28;20445;-70
2021/12/26 05:52:21;;;;;;;56.33;21.03;;;;;;;-16.93;100.00;99669.63;5039566;28;20044;-70
2021/12/26 05:55:10;;;;;;;65.87;22.57;;;;;;;-16.95;100.00;99671.16;5052501;28;20079;-70
2021/12/26 05:57:55;;;;;;;56.80;20.23;;;;;;;-16.94;100.00;99662.00;5052376;28;20450;-70
2021/12/26 06:00:39;;;;;;;70.33;25.07;;;;;;;-16.84;100.00;99672.00;5052196;28;20394;-70
2021/12/26 06:03:24;;;;;;;69.57;24.17;;;;;;;-16.83;100.00;99664.63;5052191;28;20319;-70
2021/12/26 06:06:09;;;;;;;61.17;24.03;;;;;;;-16.93;100.00;99669.63;5052218;28;20344;-70
2021/12/26 06:08:59;;;;;;;69.43;24.13;;;;;;;-16.92;100.00;99666.41;5052256;28;20045;-70
2021/12/26 06:11:44;;;;;;;91.70;28.70;;;;;;;-16.94;100.00;99659.50;5052385;28;20061;-70
2021/12/26 06:14:29;;;;;;;128.07;39.43;;;;;;;-16.89;100.00;99658.25;5052086;28;20053;-70
2021/12/26 06:17:14;;;;;;;130.50;42.73;;;;;;;-16.92;100.00;99660.53;5051320;28;20396;-70
2021/12/26 06:20:17;;;;;;;124.37;39.90;;;;;;;-16.85;100.00;99660.25;5052959;28;20064;-70
2021/12/26 06:23:13;;;;;;;89.07;32.90;;;;;;;-16.82;100.00;99657.97;5051877;28;20097;-70
2021/12/26 06:26:18;;;;;;;107.23;35.03;;;;;;;-16.81;100.00;99659.72;5052368;28;20101;-70
2021/12/26 06:29:03;;;;;;;91.70;32.70;;;;;;;-16.73;100.00;99671.22;5037890;28;20063;-70
2021/12/26 06:32:14;;;;;;;94.83;34.57;;;;;;;-16.80;100.00;99664.88;5051929;28;20491;-70
2021/12/26 06:35:16;;;;;;;68.68;26.73;;;;;;;-16.80;100.00;99676.50;5052390;28;20128;-70
2021/12/26 06:38:20;;;;;;;84.63;28.25;;;;;;;-16.68;100.00;99676.59;5052450;28;20061;-70
2021/12/26 06:41:25;;;;;;;95.00;31.23;;;;;;;-16.69;100.00;99675.72;5052421;28;20378;-70
2021/12/26 06:44:29;;;;;;;90.77;32.63;;;;;;;-16.73;100.00;99681.25;5052293;28;20040;-70
2021/12/26 06:47:21;;;;;;;91.83;30.40;;;;;;;-16.71;100.00;99679.72;5051877;28;20045;-70
2021/12/26 06:50:09;;;;;;;92.13;31.90;;;;;;;-16.73;100.00;99687.13;5051719;28;20052;-70
2021/12/26 06:52:53;;;;;;;140.23;44.37;;;;;;;-16.73;100.00;99686.25;5051765;28;20419;-70
2021/12/26 06:55:39;;;;;;;204.43;61.00;;;;;;;-16.80;100.00;99694.06;5052339;28;20098;-70
2021/12/26 06:58:23;;;;;;;172.33;49.50;;;;;;;-16.69;100.00;99704.94;5051627;28;20045;-71
2021/12/26 07:01:10;;;;;;;215.60;74.83;;;;;;;-16.70;100.00;99690.63;5051425;28;20363;-70
2021/12/26 07:03:55;;;;;;;224.77;79.33;;;;;;;-16.76;100.00;99701.09;5051448;28;20037;-70
2021/12/26 07:06:42;;;;;;;167.30;64.43;;;;;;;-16.70;100.00;99694.03;5051502;28;20049;-70
2021/12/26 07:09:36;;;;;;;144.90;45.53;;;;;;;-16.66;100.00;99696.03;5051460;28;20120;-70
2021/12/26 07:12:21;;;;;;;118.43;38.70;;;;;;;-16.45;100.00;99689.31;5037351;28;20049;-70
2021/12/26 07:15:29;;;;;;;109.23;37.40;;;;;;;-16.44;100.00;99698.59;5051006;28;20420;-70
2021/12/26 07:18:17;;;;;;;158.37;52.47;;;;;;;-16.35;100.00;99700.94;5051344;28;20037;-70
2021/12/26 07:21:03;;;;;;;141.70;46.87;;;;;;;-16.38;100.00;99701.56;5050653;28;20041;-70
2021/12/26 07:24:04;;;;;;;146.23;46.80;;;;;;;-16.27;100.00;99707.44;5049297;28;20045;-70
2021/12/26 07:26:49;;;;;;;277.30;82.60;;;;;;;-16.27;100.00;99700.78;5049387;28;20041;-70
2021/12/26 07:29:53;;;;;;;331.70;109.70;;;;;;;-16.14;100.00;99696.72;5052790;28;20347;-70
2021/12/26 07:32:38;;;;;;;115.17;43.13;;;;;;;-16.17;100.00;99701.50;5052714;28;20401;-70
2021/12/26 07:35:23;;;;;;;111.33;34.13;;;;;;;-16.09;100.00;99718.03;5052592;28;20045;-70
2021/12/26 07:38:09;;;;;;;155.23;49.13;;;;;;;-16.08;100.00;99720.66;5053001;28;20047;-70
2021/12/26 07:40:54;;;;;;;207.23;69.27;;;;;;;-15.97;100.00;99721.50;5054391;28;20049;-70
2021/12/26 07:43:48;;;;;;;169.37;63.33;;;;;;;-15.90;100.00;99725.34;5052595;28;20119;-70
2021/12/26 07:46:55;;;;;;;145.50;56.03;;;;;;;-15.78;100.00;99730.44;5052980;28;20057;-70
2021/12/26 07:49:40;;;;;;;190.17;61.97;;;;;;;-15.67;100.00;99735.53;5052575;28;20448;-70
2021/12/26 07:52:46;;;;;;;165.60;63.27;;;;;;;-15.53;100.00;99728.13;5053320;28;20041;-70
2021/12/26 07:55:49;;;;;;;154.53;56.83;;;;;;;-15.52;100.00;99724.88;5053619;28;20128;-70
2021/12/26 07:59:09;;;;;;;107.97;37.30;;;;;;;-15.46;100.00;99726.22;4994040;28;20107;-71
2021/12/26 08:02:18;;;;;;;139.85;47.70;;;;;;;-15.24;100.00;99721.13;5055552;28;20487;-70
2021/12/26 08:05:32;;;;;;;164.10;48.20;;;;;;;-14.85;100.00;99725.75;5055269;28;20041;-70
2021/12/26 08:08:49;;;;;;;156.13;51.60;;;;;;;-14.57;100.00;99719.34;5054748;28;20408;-70
2021/12/26 08:11:34;;;;;;;154.77;50.57;;;;;;;-14.38;100.00;99719.84;5054394;28;20037;-70
2021/12/26 08:14:18;;;;;;;172.07;60.53;;;;;;;-14.29;100.00;99720.50;5040602;28;20113;-70
2021/12/26 08:17:04;;;;;;;204.43;73.03;;;;;;;-13.98;100.00;99715.97;5056780;28;20037;-70
2021/12/26 08:19:48;;;;;;;233.43;88.30;;;;;;;-13.54;100.00;99710.63;5054331;28;20037;-70
2021/12/26 08:22:33;;;;;;;288.27;105.37;;;;;;;-13.16;100.00;99708.91;5054045;28;20041;-71
2021/12/26 08:25:17;;;;;;;367.27;134.43;;;;;;;-12.81;100.00;99713.75;5054925;28;20048;-71
2021/12/26 08:28:02;;;;;;;403.47;148.17;;;;;;;-12.76;100.00;99714.94;5054850;28;20044;-71
2021/12/26 08:30:48;;;;;;;388.63;141.63;;;;;;;-12.45;100.00;99719.44;5054776;28;20037;-71
2021/12/26 08:33:33;;;;;;;373.53;140.63;;;;;;;-12.13;100.00;99721.47;5054459;28;20041;-71
2021/12/26 08:36:19;;;;;;;358.33;136.40;;;;;;;-11.80;100.00;99713.44;5054837;28;20048;-71
2021/12/26 08:39:04;;;;;;;354.00;136.00;;;;;;;-11.52;100.00;99719.31;5039728;28;20094;-71
2021/12/26 08:41:48;;;;;;;244.53;99.30;;;;;;;-11.49;100.00;99729.63;5054670;28;20045;-71
2021/12/26 08:44:34;;;;;;;222.83;89.50;;;;;;;-11.34;100.00;99739.00;5054653;28;20355;-71
2021/12/26 08:47:19;;;;;;;231.53;88.13;;;;;;;-11.02;100.00;99726.50;5053306;28;20355;-71
2021/12/26 08:50:05;;;;;;;197.00;77.53;;;;;;;-10.74;100.00;99722.28;5053511;28;20056;-71
2021/12/26 08:52:49;;;;;;;209.30;80.73;;;;;;;-10.55;100.00;99718.28;5054463;28;20041;-71
2021/12/26 08:55:34;;;;;;;193.17;77.93;;;;;;;-10.54;100.00;99722.53;5039666;28;20051;-71
2021/12/26 08:58:19;;;;;;;215.27;81.40;;;;;;;-10.01;100.00;99714.50;5054652;28;20120;-71
2021/12/26 09:01:03;;;;;;;213.77;81.18;;;;;;;-9.82;100.00;99726.50;5053846;28;20056;-71
2021/12/26 09:03:48;;;;;;;214.73;83.18;;;;;;;-9.62;100.00;99736.06;5053851;28;20073;-71
2021/12/26 09:06:32;;;;;;;207.25;80.35;;;;;;;-9.35;100.00;99728.19;5039589;28;20041;-71
2021/12/26 09:09:17;;;;;;;249.18;95.20;;;;;;;-9.32;100.00;99725.81;5053958;28;20442;-72
2021/12/26 09:12:03;;;;;;;296.20;111.13;;;;;;;-9.11;100.00;99720.97;5054408;28;20045;-72
2021/12/26 09:14:47;;;;;;;476.30;192.95;;;;;;;-8.96;100.00;99719.22;5053523;28;20058;-75
2021/12/26 09:17:31;;;;;;;555.22;217.77;;;;;;;-9.02;100.00;99721.44;5056148;28;20055;-75
2021/12/26 09:20:16;;;;;;;464.45;180.13;;;;;;;-9.02;100.00;99741.75;5053462;28;20037;-75
2021/12/26 09:23:01;;;;;;;307.85;124.82;;;;;;;-8.93;100.00;99729.53;5053190;28;20164;-75
2021/12/26 09:25:45;;;;;;;235.95;100.22;;;;;;;-8.87;100.00;99739.09;5053219;28;20049;-75
2021/12/26 09:28:33;;;;;;;159.00;68.65;;;;;;;-8.76;100.00;99736.34;5052949;28;20156;-72
2021/12/26 09:31:17;;;;;;;186.75;75.55;;;;;;;-8.64;100.00;99743.72;5052314;28;20041;-72
2021/12/26 09:34:02;;;;;;;186.95;78.50;;;;;;;-8.60;100.00;99735.44;5051715;28;20045;-72
2021/12/26 09:36:47;;;;;;;188.90;80.40;;;;;;;-8.42;100.00;99721.88;5051691;28;20497;-71
2021/12/26 09:39:33;;;;;;;205.20;87.80;;;;;;;-8.19;100.00;99725.50;5050908;28;20101;-72
2021/12/26 09:42:17;;;;;;;252.80;101.18;;;;;;;-8.07;100.00;99726.97;5036855;28;20064;-72
2021/12/26 09:45:03;;;;;;;232.77;95.97;;;;;;;-8.12;100.00;99723.34;5051567;28;20037;-72
2021/12/26 09:47:50;;;;;;;167.05;68.60;;;;;;;-8.60;100.00;99730.34;5036752;28;20037;-72
2021/12/26 09:50:34;;;;;;;187.25;84.13;;;;;;;-8.13;100.00;99731.75;5050141;28;20037;-72
2021/12/26 09:53:18;;;;;;;274.75;113.18;;;;;;;-8.15;100.00;99727.41;5051404;28;20498;-72
2021/12/26 09:56:04;;;;;;;283.70;118.35;;;;;;;-8.04;100.00;99733.88;5051779;28;20449;-72
2021/12/26 09:59:04;;;;;;;230.88;104.60;;;;;;;-7.80;100.00;99731.59;5037798;28;20499;-72
2021/12/26 10:01:52;;;;;;;231.93;99.97;;;;;;;-7.55;100.00;99721.75;5024587;28;20384;-72
2021/12/26 10:04:37;;;;;;;208.48;92.55;;;;;;;-7.52;100.00;99724.44;5052475;28;20159;-72
2021/12/26 10:07:25;;;;;;;229.93;99.68;;;;;;;-7.37;100.00;99719.19;5038254;28;20037;-72
2021/12/26 10:10:09;;;;;;;231.38;103.97;;;;;;;-7.30;100.00;99721.19;5053453;28;20041;-72
2021/12/26 10:12:54;;;;;;;219.18;94.78;;;;;;;-7.36;100.00;99712.41;5052861;28;20041;-71
2021/12/26 10:15:48;;;;;;;206.38;88.53;;;;;;;-7.35;100.00;99722.66;5052498;28;20044;-71
2021/12/26 10:18:39;;;;;;;349.02;150.98;;;;;;;-7.21;100.00;99708.00;5052216;28;20089;-71
2021/12/26 10:21:28;;;;;;;382.80;145.15;;;;;;;-7.16;100.00;99705.66;5038959;28;20041;-71
2021/12/26 10:24:14;;;;;;;216.75;94.63;;;;;;;-7.12;100.00;99707.53;5052069;28;20351;-71
2021/12/26 10:27:07;;;;;;;184.10;80.13;;;;;;;-7.10;100.00;99688.97;5052258;28;20068;-71
2021/12/26 10:29:54;;;;;;;198.98;81.43;;;;;;;-7.03;100.00;99707.94;5037995;28;20101;-71
2021/12/26 10:32:39;;;;;;;209.48;88.45;;;;;;;-6.76;100.00;99705.69;5052215;28;20037;-71
2021/12/26 10:35:23;;;;;;;197.70;80.97;;;;;;;-6.97;100.00;99699.69;5051488;28;20056;-71
2021/12/26 10:38:16;;;;;;;170.95;75.03;;;;;;;-6.99;100.00;99701.28;5051702;28;20041;-71
2021/12/26 10:41:00;;;;;;;206.93;87.43;;;;;;;-6.82;100.00;99702.91;5049964;28;20037;-71
2021/12/26 10:43:45;;;;;;;144.07;61.13;;;;;;;-6.74;100.00;99698.13;5049991;28;20431;-72
2021/12/26 10:46:31;;;;;;;135.07;53.72;;;;;;;-6.82;100.00;99698.66;5050104;28;20094;-71
2021/12/26 10:49:28;;;;;;;139.38;58.50;;;;;;;-6.64;100.00;99705.34;5050826;28;20480;-71
2021/12/26 10:52:30;;;;;;;151.05;64.90;;;;;;;-6.26;100.00;99701.81;5050042;28;20358;-71
2021/12/26 10:55:36;;;;;;;240.23;102.60;;;;;;;-6.36;100.00;99702.25;5037552;28;20167;-72
2021/12/26 10:58:24;;;;;;;166.35;78.85;;;;;;;-6.04;100.00;99695.88;5051666;28;20494;-72
2021/12/26 11:01:10;;;;;;;185.98;79.18;;;;;;;-5.97;100.00;99691.91;5052244;28;20057;-72
2021/12/26 11:04:05;;;;;;;177.07;79.35;;;;;;;-5.97;100.00;99691.91;5054493;28;20515;-72
2021/12/26 11:07:00;;;;;;;157.88;70.13;;;;;;;-5.92;100.00;99698.00;5055685;28;20064;-72
2021/12/26 11:09:45;;;;;;;170.85;70.93;;;;;;;-5.90;100.00;99691.28;5055169;28;20073;-72
2021/12/26 11:12:41;;;;;;;201.25;86.57;;;;;;;-5.85;100.00;99682.09;5055900;28;20053;-72
2021/12/26 11:15:29;;;;;;;181.85;79.78;;;;;;;-5.91;100.00;99684.44;5055426;28;20045;-71
2021/12/26 11:18:18;;;;;;;159.40;69.07;;;;;;;-5.71;100.00;99682.66;5054859;28;20089;-69
2021/12/26 11:21:14;;;;;;;188.90;73.07;;;;;;;-5.55;100.00;99684.09;5055794;28;20044;-71
2021/12/26 11:23:58;;;;;;;199.30;78.35;;;;;;;-5.54;100.00;99686.69;5055349;28;20415;-69
2021/12/26 11:26:43;;;;;;;194.93;81.38;;;;;;;-5.59;100.00;99677.13;5055008;28;20037;-69
2021/12/26 11:29:28;;;;;;;175.40;74.53;;;;;;;-5.32;100.00;99674.72;5055601;28;20056;-69
2021/12/26 11:32:13;;;;;;;174.38;73.38;;;;;;;-5.29;100.00;99677.41;5055212;28;20033;-69
2021/12/26 11:34:58;;;;;;;190.00;77.47;;;;;;;-5.02;100.00;99686.03;5055235;28;20073;-69
2021/12/26 11:37:44;;;;;;;181.70;77.50;;;;;;;-4.98;100.00;99687.00;5054744;28;20041;-69
2021/12/26 11:40:32;;;;;;;228.77;91.03;;;;;;;-5.08;100.00;99684.94;5054383;28;20041;-69
2021/12/26 11:43:55;;;;;;;246.23;104.55;;;;;;;-4.75;100.00;99682.69;5054469;28;20045;-69
2021/12/26 11:47:17;;;;;;;250.18;101.97;;;;;;;-4.87;100.00;99683.16;5055596;28;20385;-69
2021/12/26 11:50:59;;;;;;;251.50;107.00;;;;;;;-4.70;100.00;99686.28;5055023;28;20431;-69
2021/12/26 11:54:51;;;;;;;267.92;115.75;;;;;;;-4.85;100.00;99684.06;4985940;28;20181;-69
2021/12/26 11:58:00;;;;;;;234.52;102.22;;;;;;;-4.94;100.00;99676.06;5054467;28;20053;-69
2021/12/26 12:00:51;;;;;;;222.50;99.22;;;;;;;-4.93;100.00;99681.25;5053995;28;20468;-69
2021/12/26 12:03:35;;;;;;;216.32;92.00;;;;;;;-4.93;100.00;99678.69;5055262;28;20077;-69
2021/12/26 12:06:26;;;;;;;324.77;135.60;;;;;;;-4.92;100.00;99679.56;5054652;28;20037;-69
2021/12/26 12:09:36;;;;;;;285.88;121.80;;;;;;;-5.10;100.00;99681.44;5054460;28;20037;-69
2021/12/26 12:12:21;;;;;;;342.88;132.13;;;;;;;-4.94;100.00;99683.72;5054816;28;20041;-69
2021/12/26 12:15:06;;;;;;;322.42;133.18;;;;;;;-4.98;100.00;99680.19;5053439;28;20041;-69
2021/12/26 12:18:11;;;;;;;274.13;113.22;;;;;;;-5.01;100.00;99669.88;5054343;28;20045;-69
2021/12/26 12:21:12;;;;;;;266.48;119.78;;;;;;;-5.10;100.00;99682.34;5054917;28;20045;-69
2021/12/26 12:24:08;;;;;;;318.73;137.38;;;;;;;-5.27;100.00;99681.72;5039575;28;20053;-69
2021/12/26 12:26:58;;;;;;;697.78;266.45;;;;;;;-5.38;100.00;99672.81;5039948;28;20037;-69
2021/12/26 12:29:51;;;;;;;478.85;198.55;;;;;;;-5.33;100.00;99671.31;5054795;28;20455;-69
2021/12/26 12:32:35;;;;;;;227.35;102.32;;;;;;;-5.33;100.00;99678.97;5039573;28;20117;-69
2021/12/26 12:35:20;;;;;;;208.50;89.43;;;;;;;-5.24;100.00;99678.41;5053745;28;20045;-69
2021/12/26 12:38:24;;;;;;;213.65;87.72;;;;;;;-5.27;100.00;99674.06;5053139;28;20347;-69
2021/12/26 12:41:28;;;;;;;;;;;;;;;-5.26;100.00;99680.06;5054437;28;20124;-69
2021/12/26 12:44:21;;;;;;;200.00;83.25;;;;;;;-5.30;100.00;99668.84;5052705;28;19921;-69
2021/12/26 12:47:13;;;;;;;211.50;87.93;;;;;;;-5.35;100.00;99675.47;5051480;28;20120;-69